Time;durP1;ratioP1;P1;durP2;ratioP2;P2;SDS_P1;SDS_P2;PMS_P1;PMS_P2;Temp;Humidity;BMP_temperature;BMP_pressure;BME280_temperature;BME280_humidity;BME280_pressure;Samples;Min_cycle;Max_cycle;Signal;HPM_P1;HPM_P2
2024/02/09 00:00:17;;;;;;;15.48;2.25;;;;;;;;;;4899390;29;20052;-66
2024/02/09 00:02:47;;;;;;;9.30;2.20;;;;;;;;;;4895328;29;20063;-68
2024/02/09 00:05:15;;;;;;;8.88;2.50;;;;;;;;;;4896974;29;20040;-66
2024/02/09 00:07:48;;;;;;;7.85;2.20;;;;;;;;;;4897766;29;20041;-66
2024/02/09 00:10:18;;;;;;;9.98;2.30;;;;;;;;;;4898359;29;20048;-65
2024/02/09 00:12:48;;;;;;;11.65;3.45;;;;;;;;;;4894921;29;20053;-68
2024/02/09 00:15:18;;;;;;;9.48;2.05;;;;;;;;;;4910882;29;20051;-66
2024/02/09 00:17:44;;;;;;;7.05;2.10;;;;;;;;;;4912875;29;20036;-66
2024/02/09 00:20:11;;;;;;;8.73;2.03;;;;;;;;;;4896601;29;20060;-66
2024/02/09 00:22:38;;;;;;;11.30;2.30;;;;;;;;;;4897649;29;20037;-66
2024/02/09 00:25:08;;;;;;;10.25;2.40;;;;;;;;;;4897863;29;20048;-64
2024/02/09 00:27:35;;;;;;;7.88;2.45;;;;;;;;;;4901716;29;20560;-65
2024/02/09 00:30:04;;;;;;;13.68;2.55;;;;;;;;;;4890115;29;20045;-66
2024/02/09 00:32:31;;;;;;;;;;;;;;;;;;4896979;29;20425;-65
2024/02/09 00:34:57;;;;;;;7.43;2.03;;;;;;;;;;4896579;29;19916;-65
2024/02/09 00:37:23;;;;;;;7.90;2.15;;;;;;;;;;4892405;29;20425;-66
2024/02/09 00:39:49;;;;;;;7.50;1.80;;;;;;;;;;4891685;29;20047;-65
2024/02/09 00:42:16;;;;;;;7.25;1.75;;;;;;;;;;4894298;29;20059;-65
2024/02/09 00:44:43;;;;;;;10.85;2.05;;;;;;;;;;4900141;29;20052;-65
2024/02/09 00:47:09;;;;;;;8.30;2.35;;;;;;;;;;4897123;29;20049;-66
2024/02/09 00:49:37;;;;;;;8.27;2.17;;;;;;;;;;4904641;29;20047;-67
2024/02/09 00:52:04;;;;;;;8.43;2.15;;;;;;;;;;4915091;29;20028;-65
2024/02/09 00:54:30;;;;;;;9.27;1.85;;;;;;;;;;4893917;29;20040;-67
2024/02/09 00:56:56;;;;;;;6.28;2.13;;;;;;;;;;4901618;29;20053;-65
2024/02/09 00:59:23;;;;;;;6.35;1.75;;;;;;;;;;4899176;29;20424;-66
2024/02/09 01:01:53;;;;;;;9.15;3.03;;;;;;;;;;4894827;29;20036;-66
2024/02/09 01:04:20;;;;;;;7.38;2.22;;;;;;;;;;4895678;29;20040;-65
2024/02/09 01:06:49;;;;;;;8.18;2.22;;;;;;;;;;4893258;29;20481;-65
2024/02/09 01:09:16;;;;;;;7.15;2.15;;;;;;;;;;4891779;29;20530;-65
2024/02/09 01:11:42;;;;;;;5.97;1.80;;;;;;;;;;4895276;29;20048;-65
2024/02/09 02:44:46;;;;;;;10.23;2.65;;;;;;;;;;4897514;29;20048;-65
2024/02/09 02:47:13;;;;;;;7.78;1.63;;;;;;;;;;4902852;29;20057;-64
2024/02/09 03:06:10;;;;;;;3.95;1.80;;;;;;;;;;4900055;29;20036;-66
2024/02/09 03:08:36;;;;;;;6.35;2.13;;;;;;;;;;4894736;29;20044;-65
2024/02/09 03:11:07;;;;;;;4.18;2.20;;;;;;;;;;4915352;29;20037;-64
2024/02/09 03:13:33;;;;;;;7.40;1.95;;;;;;;;;;4897103;29;20048;-65
2024/02/09 03:16:00;;;;;;;8.65;2.20;;;;;;;;;;4892826;29;20037;-65
2024/02/09 03:18:26;;;;;;;10.70;1.95;;;;;;;;;;4912384;29;20056;-66
2024/02/09 03:20:58;;;;;;;6.35;2.50;;;;;;;;;;4914026;29;20067;-66
2024/02/09 03:23:24;;;;;;;9.07;2.08;;;;;;;;;;4899074;29;20040;-65
2024/02/09 03:25:51;;;;;;;5.15;1.90;;;;;;;;;;4891711;29;20041;-67
2024/02/09 03:28:18;;;;;;;5.63;1.80;;;;;;;;;;4900550;29;20059;-64
2024/02/09 03:30:47;;;;;;;8.90;1.90;;;;;;;;;;4904197;29;20040;-66
2024/02/09 03:33:13;;;;;;;9.50;1.92;;;;;;;;;;4899568;29;20041;-66
2024/02/09 03:35:39;;;;;;;7.82;1.88;;;;;;;;;;4899462;29;20044;-66
2024/02/09 03:38:05;;;;;;;6.30;1.73;;;;;;;;;;4890873;29;20047;-67
2024/02/09 03:40:32;;;;;;;4.60;1.60;;;;;;;;;;4899276;29;20044;-67
2024/02/09 03:42:58;;;;;;;7.85;2.03;;;;;;;;;;4900679;29;20049;-67
2024/02/09 03:45:24;;;;;;;6.47;1.90;;;;;;;;;;4896895;29;20401;-67
2024/02/09 03:47:52;;;;;;;5.10;1.60;;;;;;;;;;4900848;29;20060;-67
2024/02/09 03:50:18;;;;;;;8.85;1.80;;;;;;;;;;4920767;29;20043;-67
2024/02/09 03:52:44;;;;;;;5.88;1.83;;;;;;;;;;4901131;29;20048;-67
2024/02/09 03:55:16;;;;;;;6.85;1.67;;;;;;;;;;4896817;29;20040;-66
2024/02/09 03:57:44;;;;;;;7.43;1.83;;;;;;;;;;4898517;29;20041;-69
2024/02/09 04:00:15;;;;;;;7.25;2.00;;;;;;;;;;4896833;29;20045;-69
2024/02/09 04:02:43;;;;;;;8.05;1.92;;;;;;;;;;4897776;29;20048;-68
2024/02/09 04:05:09;;;;;;;6.97;2.08;;;;;;;;;;4894533;29;20213;-66
2024/02/09 04:07:35;;;;;;;6.25;1.95;;;;;;;;;;4898847;29;20048;-66
2024/02/09 04:10:02;;;;;;;4.22;1.77;;;;;;;;;;4896016;29;20045;-67
2024/02/09 04:12:32;;;;;;;5.30;2.58;;;;;;;;;;4895948;29;20059;-66
2024/02/09 04:14:58;;;;;;;3.95;2.25;;;;;;;;;;4897148;29;20047;-68
2024/02/09 04:17:28;;;;;;;9.48;2.20;;;;;;;;;;4889846;29;20493;-67
2024/02/09 04:19:55;;;;;;;5.25;1.90;;;;;;;;;;4897804;29;20044;-66
2024/02/09 04:22:21;;;;;;;5.80;2.22;;;;;;;;;;4890888;29;20417;-66
2024/02/09 04:24:47;;;;;;;6.25;2.30;;;;;;;;;;4913886;29;20037;-66
2024/02/09 04:27:17;;;;;;;4.85;1.90;;;;;;;;;;4896626;29;20032;-65
2024/02/09 04:29:43;;;;;;;6.45;2.10;;;;;;;;;;4902769;29;20048;-66
2024/02/09 04:32:09;;;;;;;4.97;2.30;;;;;;;;;;4913990;29;20060;-66
2024/02/09 04:34:35;;;;;;;5.60;2.72;;;;;;;;;;4889927;29;20049;-66
2024/02/09 04:37:01;;;;;;;8.75;3.20;;;;;;;;;;4893809;29;20412;-66
2024/02/09 04:39:28;;;;;;;5.57;2.15;;;;;;;;;;4892162;29;20044;-66
2024/02/09 04:41:54;;;;;;;7.57;1.63;;;;;;;;;;4895028;29;20032;-66
2024/02/09 04:44:23;;;;;;;6.53;2.20;;;;;;;;;;4901457;29;20036;-66
2024/02/09 04:46:50;;;;;;;6.28;2.22;;;;;;;;;;4897901;29;20044;-66
2024/02/09 04:49:17;;;;;;;4.38;2.10;;;;;;;;;;4905830;29;20488;-65
2024/02/09 04:51:45;;;;;;;5.80;2.03;;;;;;;;;;4914085;29;20067;-66
2024/02/09 04:54:11;;;;;;;6.90;1.80;;;;;;;;;;4895677;29;20044;-66
2024/02/09 04:56:38;;;;;;;6.07;2.17;;;;;;;;;;4895847;29;20484;-67
2024/02/09 04:59:09;;;;;;;4.80;2.33;;;;;;;;;;4893545;29;20420;-67
2024/02/09 05:01:42;;;;;;;4.32;1.58;;;;;;;;;;4895597;29;20036;-65
2024/02/09 05:04:13;;;;;;;8.52;1.60;;;;;;;;;;4892588;29;20036;-65
2024/02/09 05:06:39;;;;;;;3.92;1.67;;;;;;;;;;4894181;29;20057;-65
2024/02/09 05:09:09;;;;;;;5.22;1.88;;;;;;;;;;4897247;29;20044;-65
2024/02/09 05:11:37;;;;;;;11.30;1.75;;;;;;;;;;4894915;29;20056;-67
2024/02/09 05:14:07;;;;;;;6.32;1.83;;;;;;;;;;4893457;29;20048;-65
2024/02/09 05:16:38;;;;;;;4.22;1.35;;;;;;;;;;4893531;29;20032;-64
2024/02/09 05:19:09;;;;;;;7.00;2.22;;;;;;;;;;4910010;29;20481;-65
2024/02/09 05:21:36;;;;;;;5.18;1.95;;;;;;;;;;4909351;29;20040;-65
2024/02/09 05:24:03;;;;;;;5.82;1.60;;;;;;;;;;4895071;29;20041;-61
2024/02/09 05:26:30;;;;;;;3.45;1.70;;;;;;;;;;4894247;29;20410;-61
2024/02/09 05:28:56;;;;;;;7.68;1.83;;;;;;;;;;4887374;29;20060;-62
2024/02/09 05:31:28;;;;;;;4.05;1.80;;;;;;;;;;4896649;29;20496;-62
2024/02/09 05:33:54;;;;;;;2.72;1.80;;;;;;;;;;4887477;29;20041;-61
2024/02/09 05:36:22;;;;;;;6.65;1.42;;;;;;;;;;4900631;29;20052;-62
2024/02/09 05:38:49;;;;;;;2.05;1.45;;;;;;;;;;4899386;29;20051;-62
2024/02/09 05:41:16;;;;;;;3.53;1.23;;;;;;;;;;4898590;29;20047;-62
2024/02/09 05:43:43;;;;;;;2.97;1.38;;;;;;;;;;4901750;29;20373;-63
2024/02/09 05:46:10;;;;;;;2.95;1.10;;;;;;;;;;4897703;29;20063;-62
2024/02/09 05:48:36;;;;;;;2.67;1.45;;;;;;;;;;4895982;29;20049;-62
2024/02/09 05:51:02;;;;;;;1.67;1.08;;;;;;;;;;4892659;29;20051;-62
2024/02/09 05:53:28;;;;;;;2.97;1.25;;;;;;;;;;4904432;29;20497;-64
2024/02/09 05:55:54;;;;;;;2.25;1.30;;;;;;;;;;4893825;29;20523;-63
2024/02/09 05:58:22;;;;;;;4.18;1.58;;;;;;;;;;4907429;29;20535;-62
2024/02/09 06:00:50;;;;;;;3.95;1.50;;;;;;;;;;4892033;29;20428;-62
2024/02/09 06:03:17;;;;;;;7.07;2.00;;;;;;;;;;4893248;29;20493;-61
2024/02/09 06:05:44;;;;;;;2.78;1.40;;;;;;;;;;4893952;29;20386;-62
2024/02/09 06:08:10;;;;;;;4.43;1.73;;;;;;;;;;4944522;23;20511;-58
2024/02/09 06:10:36;;;;;;;2.65;1.30;;;;;;;;;;4962291;28;20046;-59
2024/02/09 06:13:03;;;;;;;3.90;1.33;;;;;;;;;;4963219;28;20077;-58
2024/02/09 06:15:29;;;;;;;6.47;1.35;;;;;;;;;;4966561;28;20411;-58
2024/02/09 06:17:56;;;;;;;3.67;1.30;;;;;;;;;;4967350;28;20494;-58
2024/02/09 06:20:24;;;;;;;7.53;1.42;;;;;;;;;;4954235;28;20058;-58
2024/02/09 06:22:51;;;;;;;4.45;1.48;;;;;;;;;;4960838;28;20054;-58
2024/02/09 06:25:17;;;;;;;3.88;1.48;;;;;;;;;;4957053;28;20054;-58
2024/02/09 06:27:43;;;;;;;4.43;1.70;;;;;;;;;;4961748;28;20426;-59
2024/02/09 06:30:11;;;;;;;3.20;1.45;;;;;;;;;;4956798;28;20518;-58
2024/02/09 06:32:37;;;;;;;8.50;2.03;;;;;;;;;;4952985;28;20039;-58
2024/02/09 06:35:04;;;;;;;3.08;1.70;;;;;;;;;;4952900;28;20418;-58
2024/02/09 06:37:30;;;;;;;4.15;1.58;;;;;;;;;;4954421;28;20418;-58
2024/02/09 06:39:56;;;;;;;4.18;1.48;;;;;;;;;;4956453;28;20054;-59
2024/02/09 06:42:22;;;;;;;4.03;1.52;;;;;;;;;;4961887;28;20051;-58
2024/02/09 06:44:48;;;;;;;4.35;1.50;;;;;;;;;;4953390;28;20047;-58
2024/02/09 06:47:15;;;;;;;3.55;2.22;;;;;;;;;;4959875;28;20039;-58
2024/02/09 06:49:44;;;;;;;4.45;1.58;;;;;;;;;;4956303;28;20055;-58
2024/02/09 06:52:11;;;;;;;5.95;1.65;;;;;;;;;;4960011;28;20511;-59
2024/02/09 06:54:38;;;;;;;3.78;1.45;;;;;;;;;;4961252;28;20051;-58
2024/02/09 06:57:06;;;;;;;3.75;1.50;;;;;;;;;;4961581;28;20054;-59
2024/02/09 06:59:33;;;;;;;5.20;1.80;;;;;;;;;;4961348;28;20038;-59
2024/02/09 07:02:04;;;;;;;6.97;2.58;;;;;;;;;;4955800;28;20711;-59
2024/02/09 07:04:30;;;;;;;4.68;1.90;;;;;;;;;;4957236;28;20039;-60
2024/02/09 07:06:56;;;;;;;5.93;1.75;;;;;;;;;;4958392;28;20031;-59
2024/02/09 07:09:24;;;;;;;4.25;1.77;;;;;;;;;;4953912;28;20039;-59
2024/02/09 07:11:51;;;;;;;5.20;1.73;;;;;;;;;;4953212;28;20042;-59
2024/02/09 07:14:17;;;;;;;4.57;1.70;;;;;;;;;;4954940;28;20043;-58
2024/02/09 07:16:46;;;;;;;6.25;2.22;;;;;;;;;;4957692;28;20035;-58
2024/02/09 07:19:13;;;;;;;9.32;1.58;;;;;;;;;;4956311;28;20055;-57
2024/02/09 07:21:39;;;;;;;4.75;1.75;;;;;;;;;;4958079;28;20043;-60
2024/02/09 07:24:07;;;;;;;5.30;1.88;;;;;;;;;;4955399;28;20030;-59
2024/02/09 07:26:34;;;;;;;5.72;1.73;;;;;;;;;;4959684;28;20051;-60
2024/02/09 07:29:01;;;;;;;4.72;1.65;;;;;;;;;;4955924;28;20404;-61
2024/02/09 07:31:27;;;;;;;7.68;1.92;;;;;;;;;;4955157;28;20059;-59
2024/02/09 07:33:55;;;;;;;3.72;1.60;;;;;;;;;;4953890;28;20051;-62
2024/02/09 07:36:21;;;;;;;4.28;1.75;;;;;;;;;;4957380;28;20035;-60
2024/02/09 07:38:48;;;;;;;9.23;1.92;;;;;;;;;;4959974;28;20038;-59
2024/02/09 07:41:19;;;;;;;5.90;1.98;;;;;;;;;;4956699;28;20039;-59
2024/02/09 07:43:46;;;;;;;8.23;1.75;;;;;;;;;;4954683;28;20050;-59
2024/02/09 07:46:15;;;;;;;5.47;1.83;;;;;;;;;;4958582;28;20041;-59
2024/02/09 07:48:44;;;;;;;3.83;1.50;;;;;;;;;;4960077;28;20031;-59
2024/02/09 07:51:11;;;;;;;3.10;1.35;;;;;;;;;;4952748;28;20046;-59
2024/02/09 07:53:37;;;;;;;4.93;2.75;;;;;;;;;;4955539;28;20043;-59
2024/02/09 07:56:04;;;;;;;4.65;1.80;;;;;;;;;;4953282;28;20031;-59
2024/02/09 07:58:31;;;;;;;6.68;1.55;;;;;;;;;;4958526;28;20054;-59
2024/02/09 08:00:58;;;;;;;8.20;1.80;;;;;;;;;;4956411;28;20042;-60
2024/02/09 08:03:24;;;;;;;5.05;1.70;;;;;;;;;;4959644;28;20038;-59
2024/02/09 08:05:50;;;;;;;4.45;1.70;;;;;;;;;;4954722;28;20410;-59
2024/02/09 08:08:19;;;;;;;3.65;1.52;;;;;;;;;;4955372;28;20380;-59
2024/02/09 08:10:46;;;;;;;;;;;;;;;;;;4957721;28;20053;-59
2024/02/09 08:13:11;;;;;;;5.45;1.38;;;;;;;;;;4956082;28;19914;-59
2024/02/09 08:15:38;;;;;;;6.38;1.40;;;;;;;;;;4956689;28;20423;-59
2024/02/09 08:18:04;;;;;;;3.08;1.67;;;;;;;;;;4956160;28;20051;-59
2024/02/09 08:20:36;;;;;;;4.70;1.83;;;;;;;;;;4956615;28;20035;-59
2024/02/09 08:23:03;;;;;;;4.82;1.42;;;;;;;;;;4956012;28;20043;-59
2024/02/09 08:25:29;;;;;;;6.10;1.30;;;;;;;;;;4949606;28;20511;-59
2024/02/09 08:27:55;;;;;;;5.22;1.20;;;;;;;;;;4951966;28;20070;-59
2024/02/09 08:30:21;;;;;;;3.58;1.52;;;;;;;;;;4954291;28;20043;-59
2024/02/09 08:32:47;;;;;;;7.82;1.60;;;;;;;;;;4953939;28;20054;-59
2024/02/09 08:35:13;;;;;;;8.05;1.92;;;;;;;;;;4954652;28;20028;-60
2024/02/09 08:37:40;;;;;;;5.20;1.55;;;;;;;;;;4959274;28;20053;-59
2024/02/09 08:40:07;;;;;;;5.53;1.35;;;;;;;;;;4953997;28;20058;-59
2024/02/09 08:42:33;;;;;;;9.75;1.40;;;;;;;;;;4958398;28;20039;-60
2024/02/09 08:44:59;;;;;;;3.72;1.15;;;;;;;;;;4954934;28;20043;-59
2024/02/09 08:47:25;;;;;;;3.88;1.40;;;;;;;;;;4954301;28;20062;-59
2024/02/09 08:49:52;;;;;;;4.50;1.58;;;;;;;;;;4951349;28;20046;-59
2024/02/09 08:52:18;;;;;;;4.55;1.55;;;;;;;;;;4951815;28;20514;-60
2024/02/09 08:54:47;;;;;;;3.53;1.20;;;;;;;;;;4961744;28;20406;-59
2024/02/09 08:57:14;;;;;;;4.22;1.45;;;;;;;;;;4952028;28;20042;-59
2024/02/09 08:59:41;;;;;;;5.07;1.35;;;;;;;;;;4950993;28;20420;-58
2024/02/09 09:02:07;;;;;;;3.90;1.27;;;;;;;;;;4955303;28;20054;-58
2024/02/09 09:04:34;;;;;;;6.80;1.67;;;;;;;;;;4952120;28;20050;-58
2024/02/09 09:07:00;;;;;;;3.35;0.90;;;;;;;;;;4951269;28;20047;-58
2024/02/09 09:09:26;;;;;;;4.95;1.25;;;;;;;;;;4952554;28;20039;-58
2024/02/09 09:11:56;;;;;;;3.72;1.10;;;;;;;;;;4951571;28;20059;-57
2024/02/09 09:14:25;;;;;;;;;;;;;;;;;;4954421;28;20403;-58
2024/02/09 09:16:52;;;;;;;3.20;1.20;;;;;;;;;;4950360;28;19914;-57
2024/02/09 09:19:18;;;;;;;4.72;0.90;;;;;;;;;;4952125;28;20407;-59
2024/02/09 09:21:45;;;;;;;3.45;1.25;;;;;;;;;;4955541;28;20050;-58
2024/02/09 09:24:11;;;;;;;3.05;1.10;;;;;;;;;;4950655;28;20046;-58
2024/02/09 09:26:37;;;;;;;4.07;1.10;;;;;;;;;;4960030;28;20038;-58
2024/02/09 09:29:03;;;;;;;5.45;1.40;;;;;;;;;;4952262;28;20079;-58
2024/02/09 09:31:31;;;;;;;4.82;0.93;;;;;;;;;;4954135;28;20039;-57
2024/02/09 09:33:58;;;;;;;7.65;1.20;;;;;;;;;;4952296;28;20051;-57
2024/02/09 09:36:27;;;;;;;4.20;1.30;;;;;;;;;;4961664;28;20503;-57
2024/02/09 09:38:53;;;;;;;2.55;1.15;;;;;;;;;;4954903;28;20047;-58
2024/02/09 09:41:19;;;;;;;1.38;0.98;;;;;;;;;;4955430;28;20513;-58
2024/02/09 09:43:49;;;;;;;4.45;1.10;;;;;;;;;;4952696;28;20031;-58
2024/02/09 09:46:18;;;;;;;1.88;0.85;;;;;;;;;;4958982;28;20502;-57
2024/02/09 09:48:44;;;;;;;3.08;1.00;;;;;;;;;;4952016;28;20511;-58
2024/02/09 09:51:12;;;;;;;3.53;0.98;;;;;;;;;;4949083;28;20400;-58
2024/02/09 09:53:42;;;;;;;1.75;1.00;;;;;;;;;;4951747;28;20047;-58
2024/02/09 09:56:10;;;;;;;4.50;1.13;;;;;;;;;;4949827;28;20601;-58
2024/02/09 09:58:37;;;;;;;2.05;1.10;;;;;;;;;;4951357;28;20039;-58
2024/02/09 10:01:08;;;;;;;2.15;0.90;;;;;;;;;;4951802;28;20121;-58
2024/02/09 10:03:43;;;;;;;3.75;1.77;;;;;;;;;;4957309;28;20042;-58
2024/02/09 10:06:09;;;;;;;2.83;1.20;;;;;;;;;;4952403;28;20475;-58
2024/02/09 10:08:36;;;;;;;2.83;1.27;;;;;;;;;;4953353;28;20042;-58
2024/02/09 10:11:02;;;;;;;5.38;1.50;;;;;;;;;;4952523;28;20058;-58
2024/02/09 10:13:29;;;;;;;2.42;1.05;;;;;;;;;;4953310;28;20047;-58
2024/02/09 10:15:55;;;;;;;4.18;1.55;;;;;;;;;;4950043;28;20047;-60
2024/02/09 10:18:22;;;;;;;3.05;0.90;;;;;;;;;;4952532;28;20060;-59
2024/02/09 10:20:48;;;;;;;2.70;0.93;;;;;;;;;;4952947;28;20031;-57
2024/02/09 10:23:19;;;;;;;2.03;1.00;;;;;;;;;;4955735;28;20050;-57
2024/02/09 10:25:46;;;;;;;1.70;1.02;;;;;;;;;;4956271;28;20054;-59
2024/02/09 10:28:13;;;;;;;3.67;1.17;;;;;;;;;;4959448;28;20039;-61
2024/02/09 10:30:40;;;;;;;3.03;0.85;;;;;;;;;;4955609;28;20031;-58
2024/02/09 10:33:10;;;;;;;2.60;1.10;;;;;;;;;;4957037;28;20043;-57
2024/02/09 10:35:36;;;;;;;5.13;1.15;;;;;;;;;;4956038;28;20549;-57
2024/02/09 10:38:03;;;;;;;3.80;0.90;;;;;;;;;;4955477;28;20050;-58
2024/02/09 10:40:29;;;;;;;3.90;0.88;;;;;;;;;;4953934;28;20043;-57
2024/02/09 10:42:56;;;;;;;3.45;0.82;;;;;;;;;;4959330;28;20053;-57
2024/02/09 10:45:25;;;;;;;1.77;1.20;;;;;;;;;;4955736;28;20036;-57
2024/02/09 10:47:54;;;;;;;2.28;1.10;;;;;;;;;;4951140;28;20039;-57
2024/02/09 10:50:21;;;;;;;3.45;1.02;;;;;;;;;;4954161;28;20039;-57
2024/02/09 10:52:49;;;;;;;4.40;1.05;;;;;;;;;;4953534;28;20035;-57
2024/02/09 10:55:28;;;;;;;2.37;0.80;;;;;;;;;;4954135;28;20414;-57
2024/02/09 10:57:56;;;;;;;3.42;0.93;;;;;;;;;;4954774;28;20051;-58
2024/02/09 11:00:22;;;;;;;1.90;1.05;;;;;;;;;;4954860;28;20046;-58
2024/02/09 11:02:48;;;;;;;2.92;1.17;;;;;;;;;;4955350;28;20123;-58
2024/02/09 11:05:14;;;;;;;1.50;0.90;;;;;;;;;;4953283;28;20511;-57
2024/02/09 11:07:49;;;;;;;3.42;1.10;;;;;;;;;;4952703;28;20035;-58
2024/02/09 11:10:19;;;;;;;1.65;0.95;;;;;;;;;;4957933;28;20046;-57
2024/02/09 11:12:57;;;;;;;4.93;1.10;;;;;;;;;;4955866;28;20039;-59
2024/02/09 11:15:32;;;;;;;2.92;0.93;;;;;;;;;;4956810;28;20042;-57
2024/02/09 11:17:59;;;;;;;3.28;1.02;;;;;;;;;;4955978;28;20035;-57
2024/02/09 11:20:27;;;;;;;1.70;0.82;;;;;;;;;;4953417;28;20059;-60
2024/02/09 11:23:00;;;;;;;3.35;1.02;;;;;;;;;;4955968;28;20051;-59
2024/02/09 11:25:34;;;;;;;3.93;1.30;;;;;;;;;;4954578;28;20070;-59
2024/02/09 11:28:06;;;;;;;3.83;1.10;;;;;;;;;;4953921;28;20051;-59
2024/02/09 11:30:32;;;;;;;3.00;1.10;;;;;;;;;;4954573;28;20061;-59
2024/02/09 11:32:58;;;;;;;6.38;1.30;;;;;;;;;;4953665;28;20043;-59
2024/02/09 11:35:29;;;;;;;3.00;0.90;;;;;;;;;;4954886;28;20059;-58
2024/02/09 11:37:57;;;;;;;2.13;1.10;;;;;;;;;;4962253;28;20035;-59
2024/02/09 11:40:23;;;;;;;4.15;1.23;;;;;;;;;;4962094;28;20043;-59
2024/02/09 11:42:49;;;;;;;1.52;1.02;;;;;;;;;;4952690;28;20104;-59
2024/02/09 11:45:16;;;;;;;2.72;1.00;;;;;;;;;;4960148;28;20057;-59
2024/02/09 11:47:43;;;;;;;6.57;1.60;;;;;;;;;;4956854;28;20042;-58
2024/02/09 11:50:22;;;;;;;7.05;1.42;;;;;;;;;;4963380;28;20038;-58
2024/02/09 11:52:49;;;;;;;;;;;;;;;;;;4959255;28;20067;-59
2024/02/09 11:55:15;;;;;;;3.28;1.10;;;;;;;;;;4962320;28;19945;-58
2024/02/09 11:57:42;;;;;;;3.92;1.05;;;;;;;;;;4958828;28;20031;-58
2024/02/09 12:00:09;;;;;;;3.15;0.90;;;;;;;;;;4959227;28;20051;-57
2024/02/09 12:02:35;;;;;;;2.95;1.27;;;;;;;;;;4962178;28;20054;-58
2024/02/09 12:05:04;;;;;;;2.90;1.17;;;;;;;;;;4960736;28;20424;-58
2024/02/09 12:07:30;;;;;;;2.70;1.30;;;;;;;;;;4954520;28;20066;-59
2024/02/09 12:09:57;;;;;;;3.35;0.82;;;;;;;;;;4974943;23;20010;-64
2024/02/09 12:12:23;;;;;;;6.68;1.65;;;;;;;;;;4974625;28;20043;-64
2024/02/09 12:14:49;;;;;;;2.95;1.15;;;;;;;;;;4974659;28;20039;-66
2024/02/09 12:17:16;;;;;;;7.88;1.00;;;;;;;;;;4973005;28;20058;-64
2024/02/09 12:19:43;;;;;;;2.42;1.10;;;;;;;;;;4977638;28;20489;-65
2024/02/09 12:22:09;;;;;;;2.63;1.10;;;;;;;;;;4970980;28;20057;-65
2024/02/09 12:24:36;;;;;;;2.95;1.00;;;;;;;;;;4978412;28;20520;-65
2024/02/09 12:27:14;;;;;;;3.63;1.23;;;;;;;;;;4986416;28;20046;-65
2024/02/09 12:29:43;;;;;;;5.43;2.00;;;;;;;;;;4979415;28;20425;-66
2024/02/09 12:32:10;;;;;;;;;;;;;;;;;;4978596;28;20051;-66
2024/02/09 12:34:47;;;;;;;3.85;1.17;;;;;;;;;;4971508;28;19921;-66
2024/02/09 12:37:15;;;;;;;2.25;0.95;;;;;;;;;;4974700;28;20502;-67
2024/02/09 12:39:48;;;;;;;6.43;1.40;;;;;;;;;;4987031;28;20417;-67
2024/02/09 12:42:14;;;;;;;6.95;1.48;;;;;;;;;;4982296;28;20049;-67
2024/02/09 12:44:44;;;;;;;4.10;1.42;;;;;;;;;;4980340;28;20034;-67
2024/02/09 12:47:10;;;;;;;6.60;1.27;;;;;;;;;;4976430;28;20054;-67
2024/02/09 12:49:36;;;;;;;1.85;1.10;;;;;;;;;;4988464;28;20494;-64
2024/02/09 12:52:11;;;;;;;5.78;1.35;;;;;;;;;;4972500;28;20058;-64
2024/02/09 12:54:37;;;;;;;3.38;1.35;;;;;;;;;;4979569;28;20046;-65
2024/02/09 12:57:06;;;;;;;3.78;1.23;;;;;;;;;;4979356;28;20063;-64
2024/02/09 12:59:34;;;;;;;5.40;1.20;;;;;;;;;;4980503;28;20042;-65
2024/02/09 13:02:07;;;;;;;2.55;1.17;;;;;;;;;;5000003;28;20042;-66
2024/02/09 13:04:34;;;;;;;2.17;0.73;;;;;;;;;;4985823;28;20046;-65
2024/02/09 13:07:00;;;;;;;4.18;1.10;;;;;;;;;;4975798;28;20054;-66
2024/02/09 13:09:27;;;;;;;4.90;2.75;;;;;;;;;;4973696;28;20055;-64
2024/02/09 13:11:53;;;;;;;6.78;3.00;;;;;;;;;;4978434;28;20046;-64
2024/02/09 13:14:19;;;;;;;5.80;2.40;;;;;;;;;;4978651;28;20054;-64
2024/02/09 13:16:48;;;;;;;3.33;1.63;;;;;;;;;;4972509;28;20051;-64
2024/02/09 13:19:15;;;;;;;6.90;1.58;;;;;;;;;;4973235;28;20054;-66
2024/02/09 13:21:51;;;;;;;5.13;1.48;;;;;;;;;;4975584;28;20046;-65
2024/02/09 13:24:20;;;;;;;4.10;1.40;;;;;;;;;;4969068;28;20049;-64
2024/02/09 13:26:50;;;;;;;5.70;1.40;;;;;;;;;;4975929;28;20041;-66
2024/02/09 13:29:17;;;;;;;1.60;1.40;;;;;;;;;;4975280;28;20061;-65
2024/02/09 13:31:44;;;;;;;4.13;1.70;;;;;;;;;;4977568;28;20457;-68
2024/02/09 13:34:10;;;;;;;2.28;1.00;;;;;;;;;;4984851;28;20451;-66
2024/02/09 13:36:36;;;;;;;2.45;1.27;;;;;;;;;;4978844;28;20041;-65
2024/02/09 13:39:02;;;;;;;5.50;1.02;;;;;;;;;;4974330;28;20054;-66
2024/02/09 13:41:29;;;;;;;2.40;1.20;;;;;;;;;;4979645;28;20050;-66
2024/02/09 13:43:57;;;;;;;4.90;1.63;;;;;;;;;;4985641;28;20058;-64
2024/02/09 13:46:23;;;;;;;6.13;1.52;;;;;;;;;;4975497;28;20411;-65
2024/02/09 13:48:50;;;;;;;3.53;1.70;;;;;;;;;;4973467;28;20043;-65
2024/02/09 13:51:21;;;;;;;4.10;2.13;;;;;;;;;;4970686;28;20065;-64
2024/02/09 13:53:47;;;;;;;1.42;1.00;;;;;;;;;;4977522;28;20042;-64
2024/02/09 13:56:14;;;;;;;5.18;2.92;;;;;;;;;;4979747;28;20502;-65
2024/02/09 13:58:45;;;;;;;3.15;1.58;;;;;;;;;;4990578;28;20061;-64
2024/02/09 14:01:14;;;;;;;2.70;1.30;;;;;;;;;;4984044;28;20042;-65
2024/02/09 14:03:44;;;;;;;2.85;1.08;;;;;;;;;;4976898;28;20038;-64
2024/02/09 14:06:15;;;;;;;2.55;1.00;;;;;;;;;;4981600;28;20046;-64
2024/02/09 14:08:45;;;;;;;2.50;0.98;;;;;;;;;;4976351;28;20031;-64
2024/02/09 14:11:15;;;;;;;1.55;0.80;;;;;;;;;;4978404;28;20054;-64
2024/02/09 14:13:42;;;;;;;4.65;1.23;;;;;;;;;;4981373;28;20046;-64
2024/02/09 14:16:08;;;;;;;2.45;1.10;;;;;;;;;;4994495;28;20038;-64
2024/02/09 14:18:35;;;;;;;4.13;1.65;;;;;;;;;;4978570;28;20438;-64
2024/02/09 14:21:05;;;;;;;1.25;1.02;;;;;;;;;;4979564;28;20034;-65
2024/02/09 14:23:32;;;;;;;4.07;1.33;;;;;;;;;;4979579;28;20038;-65
2024/02/09 14:25:59;;;;;;;3.17;1.17;;;;;;;;;;4979353;28;20042;-65
2024/02/09 14:28:28;;;;;;;4.35;1.20;;;;;;;;;;4974025;28;20509;-65
2024/02/09 14:30:55;;;;;;;3.35;0.90;;;;;;;;;;4975035;28;20046;-65
2024/02/09 14:33:21;;;;;;;3.10;1.40;;;;;;;;;;4977797;28;20612;-65
2024/02/09 14:35:47;;;;;;;3.13;1.35;;;;;;;;;;4978637;28;20046;-65
2024/02/09 14:38:14;;;;;;;4.80;1.20;;;;;;;;;;4981983;28;20127;-64
2024/02/09 14:40:40;;;;;;;3.10;0.95;;;;;;;;;;4982588;28;20050;-65
2024/02/09 14:43:06;;;;;;;2.00;1.30;;;;;;;;;;4981307;28;20405;-65
2024/02/09 14:45:35;;;;;;;3.13;1.48;;;;;;;;;;4973952;28;20031;-64
2024/02/09 14:48:01;;;;;;;4.13;1.57;;;;;;;;;;4982790;28;20042;-65
2024/02/09 14:50:28;;;;;;;3.60;1.40;;;;;;;;;;4974835;28;20054;-65
2024/02/09 14:52:59;;;;;;;3.95;0.80;;;;;;;;;;4971720;28;20038;-65
2024/02/09 14:55:27;;;;;;;3.42;1.00;;;;;;;;;;4978616;28;20030;-65
2024/02/09 14:57:57;;;;;;;1.48;1.10;;;;;;;;;;4971817;28;20058;-65
2024/02/09 15:00:23;;;;;;;;;;;;;;;;;;4977449;28;20073;-65
2024/02/09 15:02:51;;;;;;;1.42;0.73;;;;;;;;;;4986082;28;20373;-66
2024/02/09 15:05:17;;;;;;;2.80;1.08;;;;;;;;;;4980360;28;20035;-65
2024/02/09 15:07:43;;;;;;;2.42;1.52;;;;;;;;;;4982952;28;20034;-64
2024/02/09 15:10:10;;;;;;;2.30;1.15;;;;;;;;;;4983986;28;22369;-65
2024/02/09 15:12:36;;;;;;;3.30;1.30;;;;;;;;;;4981608;28;20390;-65
2024/02/09 15:15:03;;;;;;;1.38;0.88;;;;;;;;;;4985930;28;20038;-64
2024/02/09 15:17:30;;;;;;;2.78;1.15;;;;;;;;;;4978014;28;20057;-66
2024/02/09 15:19:56;;;;;;;3.83;1.40;;;;;;;;;;4985143;28;20042;-67
2024/02/09 15:22:22;;;;;;;1.83;1.05;;;;;;;;;;4984776;28;20394;-64
2024/02/09 15:24:48;;;;;;;1.73;0.63;;;;;;;;;;4989773;28;20099;-65
2024/02/09 15:27:18;;;;;;;1.83;0.85;;;;;;;;;;4984112;28;20454;-65
2024/02/09 15:29:47;;;;;;;1.48;0.90;;;;;;;;;;4978989;28;20399;-64
2024/02/09 15:32:14;;;;;;;1.58;0.90;;;;;;;;;;4986164;28;20427;-64
2024/02/09 15:34:43;;;;;;;0.88;0.60;;;;;;;;;;4983384;28;20034;-64
2024/02/09 15:37:11;;;;;;;3.70;0.80;;;;;;;;;;4985740;28;20042;-64
2024/02/09 15:39:37;;;;;;;5.00;2.55;;;;;;;;;;4983282;28;20034;-65
2024/02/09 15:42:03;;;;;;;0.65;0.50;;;;;;;;;;4975727;28;20601;-64
2024/02/09 15:44:33;;;;;;;1.77;1.02;;;;;;;;;;4980475;28;20042;-64
2024/02/09 15:46:59;;;;;;;1.92;0.70;;;;;;;;;;4984979;28;20037;-65
2024/02/09 15:49:26;;;;;;;1.25;0.63;;;;;;;;;;4978059;28;20596;-65
2024/02/09 15:51:56;;;;;;;2.00;0.60;;;;;;;;;;4979282;28;20046;-65
2024/02/09 15:54:25;;;;;;;2.08;0.90;;;;;;;;;;4979125;28;20042;-65
2024/02/09 15:56:51;;;;;;;1.05;0.70;;;;;;;;;;4971650;28;20046;-65
2024/02/09 15:59:17;;;;;;;0.30;0.30;;;;;;;;;;4958542;28;20043;-63
2024/02/09 16:01:52;;;;;;;0.60;0.60;;;;;;;;;;4974822;28;20039;-64
2024/02/09 16:04:21;;;;;;;1.48;0.40;;;;;;;;;;4983937;28;20046;-64
2024/02/09 16:06:49;;;;;;;1.17;0.50;;;;;;;;;;4985542;28;20462;-65
2024/02/09 16:09:15;;;;;;;0.40;0.40;;;;;;;;;;4981302;28;20671;-64
2024/02/09 16:11:47;;;;;;;2.70;1.30;;;;;;;;;;4981020;28;20438;-63
2024/02/09 16:14:13;;;;;;;1.30;0.80;;;;;;;;;;4980849;28;20038;-66
2024/02/09 16:16:39;;;;;;;1.02;0.70;;;;;;;;;;4976438;28;20038;-64
2024/02/09 16:19:06;;;;;;;1.10;0.60;;;;;;;;;;4976449;28;20034;-64
2024/02/09 16:21:32;;;;;;;1.27;0.70;;;;;;;;;;4978185;28;20042;-63
2024/02/09 16:23:59;;;;;;;2.55;1.02;;;;;;;;;;4977570;28;20045;-64
2024/02/09 16:26:25;;;;;;;2.38;1.00;;;;;;;;;;4983102;28;20387;-64
2024/02/09 16:28:51;;;;;;;1.88;1.00;;;;;;;;;;4975918;28;20038;-63
2024/02/09 16:31:18;;;;;;;1.20;1.10;;;;;;;;;;4973041;28;20049;-63
2024/02/09 16:33:45;;;;;;;2.13;1.30;;;;;;;;;;4975100;28;20037;-64